sensor_id;sensor_type;location;lat;lon;timestamp;pressure;altitude;pressure_sealevel;temperature;humidity
14902;BME280;7542;49.078;9.194;2023-04-30T00:00:14;98913.59;;;29.94;30.50
14902;BME280;7542;49.078;9.194;2023-04-30T00:01:16;98901.53;;;29.86;30.84
14902;BME280;7542;49.078;9.194;2023-04-30T00:02:18;98913.19;;;29.82;30.51
14902;BME280;7542;49.078;9.194;2023-04-30T00:03:21;98912.69;;;29.80;31.13
14902;BME280;7542;49.078;9.194;2023-04-30T00:04:25;98915.19;;;29.76;31.40
14902;BME280;7542;49.078;9.194;2023-04-30T00:05:27;98912.22;;;29.72;31.92
14902;BME280;7542;49.078;9.194;2023-04-30T00:06:29;98909.81;;;29.71;32.25
14902;BME280;7542;49.078;9.194;2023-04-30T00:07:31;98905.50;;;29.70;32.97
14902;BME280;7542;49.078;9.194;2023-04-30T00:08:33;98904.97;;;29.68;32.81
14902;BME280;7542;49.078;9.194;2023-04-30T00:09:35;98908.50;;;29.68;32.85
14902;BME280;7542;49.078;9.194;2023-04-30T00:10:37;98915.00;;;29.67;32.93
14902;BME280;7542;49.078;9.194;2023-04-30T00:11:39;98910.16;;;29.64;33.20
14902;BME280;7542;49.078;9.194;2023-04-30T00:12:41;98910.44;;;29.63;33.11
14902;BME280;7542;49.078;9.194;2023-04-30T00:13:43;98902.31;;;29.63;33.39
14902;BME280;7542;49.078;9.194;2023-04-30T00:14:45;98908.56;;;29.63;33.17
14902;BME280;7542;49.078;9.194;2023-04-30T00:15:46;98909.38;;;29.64;33.23
14902;BME280;7542;49.078;9.194;2023-04-30T00:16:48;98913.97;;;29.63;33.58
14902;BME280;7542;49.078;9.194;2023-04-30T00:17:50;98911.25;;;29.63;33.29
14902;BME280;7542;49.078;9.194;2023-04-30T00:18:53;98903.16;;;29.63;33.50
14902;BME280;7542;49.078;9.194;2023-04-30T00:19:55;98908.56;;;29.63;33.71
14902;BME280;7542;49.078;9.194;2023-04-30T00:20:57;98908.00;;;29.61;33.23
14902;BME280;7542;49.078;9.194;2023-04-30T00:21:59;98900.72;;;29.62;33.70
14902;BME280;7542;49.078;9.194;2023-04-30T00:23:05;98904.22;;;29.62;33.38
14902;BME280;7542;49.078;9.194;2023-04-30T00:24:07;98915.03;;;29.62;33.66
14902;BME280;7542;49.078;9.194;2023-04-30T00:25:09;98913.41;;;29.61;33.71
14902;BME280;7542;49.078;9.194;2023-04-30T00:26:11;98910.44;;;29.63;33.49
14902;BME280;7542;49.078;9.194;2023-04-30T00:27:14;98909.91;;;29.61;33.39
14902;BME280;7542;49.078;9.194;2023-04-30T00:28:15;98913.41;;;29.61;33.24
14902;BME280;7542;49.078;9.194;2023-04-30T00:29:17;98910.72;;;29.61;33.30
14902;BME280;7542;49.078;9.194;2023-04-30T00:30:19;98921.53;;;29.61;33.33
14902;BME280;7542;49.078;9.194;2023-04-30T00:31:21;98919.91;;;29.60;33.50
14902;BME280;7542;49.078;9.194;2023-04-30T00:32:23;98913.41;;;29.61;33.40
14902;BME280;7542;49.078;9.194;2023-04-30T00:33:25;98921.53;;;29.61;33.65
14902;BME280;7542;49.078;9.194;2023-04-30T00:34:27;98914.50;;;29.60;33.68
14902;BME280;7542;49.078;9.194;2023-04-30T00:35:29;98920.22;;;29.59;33.40
14902;BME280;7542;49.078;9.194;2023-04-30T00:36:31;98923.72;;;29.59;33.13
14902;BME280;7542;49.078;9.194;2023-04-30T00:37:32;98923.72;;;29.59;33.79
14902;BME280;7542;49.078;9.194;2023-04-30T00:38:34;98928.31;;;29.59;33.41
14902;BME280;7542;49.078;9.194;2023-04-30T00:39:36;98931.81;;;29.59;33.07
14902;BME280;7542;49.078;9.194;2023-04-30T00:40:40;98937.22;;;29.59;33.48
14902;BME280;7542;49.078;9.194;2023-04-30T00:41:43;98931.03;;;29.59;33.36
14902;BME280;7542;49.078;9.194;2023-04-30T00:42:45;98936.72;;;29.57;33.25
14902;BME280;7542;49.078;9.194;2023-04-30T00:43:46;98934.00;;;29.57;33.16
14902;BME280;7542;49.078;9.194;2023-04-30T00:44:48;98936.72;;;29.57;33.62
14902;BME280;7542;49.078;9.194;2023-04-30T00:45:50;98937.00;;;29.56;33.21
14902;BME280;7542;49.078;9.194;2023-04-30T00:46:52;98940.50;;;29.56;33.15
14902;BME280;7542;49.078;9.194;2023-04-30T00:47:54;98937.81;;;29.56;33.54
14902;BME280;7542;49.078;9.194;2023-04-30T00:48:56;98938.09;;;29.55;33.09
14902;BME280;7542;49.078;9.194;2023-04-30T00:49:59;98940.00;;;29.54;33.15
14902;BME280;7542;49.078;9.194;2023-04-30T00:51:02;98943.22;;;29.56;33.12
14902;BME280;7542;49.078;9.194;2023-04-30T00:52:05;98935.41;;;29.55;33.23
14902;BME280;7542;49.078;9.194;2023-04-30T00:53:07;98938.91;;;29.55;33.08
14902;BME280;7542;49.078;9.194;2023-04-30T00:54:09;98936.50;;;29.54;33.16
14902;BME280;7542;49.078;9.194;2023-04-30T00:55:13;98944.84;;;29.52;33.20
14902;BME280;7542;49.078;9.194;2023-04-30T00:56:15;98941.34;;;29.52;33.42
14902;BME280;7542;49.078;9.194;2023-04-30T00:57:17;98939.75;;;29.51;33.11
14902;BME280;7542;49.078;9.194;2023-04-30T00:58:21;98940.28;;;29.53;33.24
14902;BME280;7542;49.078;9.194;2023-04-30T00:59:24;98940.84;;;29.50;33.09
14902;BME280;7542;49.078;9.194;2023-04-30T01:00:26;98933.81;;;29.49;33.44
14902;BME280;7542;49.078;9.194;2023-04-30T01:01:28;98941.63;;;29.50;33.30
14902;BME280;7542;49.078;9.194;2023-04-30T01:02:30;98943.81;;;29.48;33.51
14902;BME280;7542;49.078;9.194;2023-04-30T01:03:33;98940.31;;;29.48;33.28
14902;BME280;7542;49.078;9.194;2023-04-30T01:04:38;98943.03;;;29.48;33.28
14902;BME280;7542;49.078;9.194;2023-04-30T01:05:40;98940.56;;;29.46;33.16
14902;BME280;7542;49.078;9.194;2023-04-30T01:06:42;98945.19;;;29.45;33.10
14902;BME280;7542;49.078;9.194;2023-04-30T01:07:44;98934.06;;;29.47;33.32
14902;BME280;7542;49.078;9.194;2023-04-30T01:08:48;98942.47;;;29.45;33.50
14902;BME280;7542;49.078;9.194;2023-04-30T01:09:50;98936.25;;;29.45;33.59
14902;BME280;7542;49.078;9.194;2023-04-30T01:11:25;98942.44;;;29.51;32.99
14902;BME280;7542;49.078;9.194;2023-04-30T01:14:12;98939.22;;;29.49;32.90
14902;BME280;7542;49.078;9.194;2023-04-30T01:19:35;98943.28;;;29.46;33.15
14902;BME280;7542;49.078;9.194;2023-04-30T01:20:49;98933.84;;;29.43;33.13
14902;BME280;7542;49.078;9.194;2023-04-30T01:21:57;98939.00;;;29.40;33.52
14902;BME280;7542;49.078;9.194;2023-04-30T01:26:19;98939.56;;;29.37;33.48
14902;BME280;7542;49.078;9.194;2023-04-30T01:27:45;98939.56;;;29.37;33.56
14902;BME280;7542;49.078;9.194;2023-04-30T01:28:51;98934.47;;;29.35;33.32
14902;BME280;7542;49.078;9.194;2023-04-30T01:29:55;98936.38;;;29.30;33.25
14902;BME280;7542;49.078;9.194;2023-04-30T01:30:57;98933.16;;;29.28;33.39
14902;BME280;7542;49.078;9.194;2023-04-30T01:31:59;98935.06;;;29.27;33.48
14902;BME280;7542;49.078;9.194;2023-04-30T01:33:03;98934.25;;;29.27;33.41
14902;BME280;7542;49.078;9.194;2023-04-30T01:34:05;98931.84;;;29.25;33.61
14902;BME280;7542;49.078;9.194;2023-04-30T01:35:07;98939.94;;;29.25;33.58
14902;BME280;7542;49.078;9.194;2023-04-30T01:41:09;98925.03;;;29.33;33.02
14902;BME280;7542;49.078;9.194;2023-04-30T01:42:32;98919.38;;;29.29;33.28
14902;BME280;7542;49.078;9.194;2023-04-30T01:46:29;98931.91;;;29.20;33.16
14902;BME280;7542;49.078;9.194;2023-04-30T01:47:51;98920.25;;;29.25;33.60
14902;BME280;7542;49.078;9.194;2023-04-30T01:51:42;98921.09;;;29.20;33.34
14902;BME280;7542;49.078;9.194;2023-04-30T01:52:52;98930.84;;;29.16;33.40
14902;BME280;7542;49.078;9.194;2023-04-30T01:54:09;98926.25;;;29.16;33.39
14902;BME280;7542;49.078;9.194;2023-04-30T01:55:20;98919.75;;;29.17;33.31
14902;BME280;7542;49.078;9.194;2023-04-30T01:56:36;98931.63;;;29.16;33.28
14902;BME280;7542;49.078;9.194;2023-04-30T01:57:51;98927.03;;;29.17;33.57
14902;BME280;7542;49.078;9.194;2023-04-30T01:58:56;98936.00;;;29.12;33.59
14902;BME280;7542;49.078;9.194;2023-04-30T02:00:00;98936.59;;;29.09;33.56
14902;BME280;7542;49.078;9.194;2023-04-30T02:01:02;98931.19;;;29.09;33.20
14902;BME280;7542;49.078;9.194;2023-04-30T02:02:05;98929.53;;;29.08;33.25
14902;BME280;7542;49.078;9.194;2023-04-30T02:03:07;98926.03;;;29.08;33.60
14902;BME280;7542;49.078;9.194;2023-04-30T02:04:09;98927.13;;;29.07;33.62
14902;BME280;7542;49.078;9.194;2023-04-30T02:05:11;98926.31;;;29.06;33.61
14902;BME280;7542;49.078;9.194;2023-04-30T02:06:13;98931.72;;;29.06;33.28
14902;BME280;7542;49.078;9.194;2023-04-30T02:07:37;98922.50;;;29.12;33.38
14902;BME280;7542;49.078;9.194;2023-04-30T02:08:40;98920.38;;;29.09;33.53
14902;BME280;7542;49.078;9.194;2023-04-30T02:09:42;98918.22;;;29.06;33.38
14902;BME280;7542;49.078;9.194;2023-04-30T02:10:43;98923.91;;;29.05;33.57
14902;BME280;7542;49.078;9.194;2023-04-30T02:11:45;98916.91;;;29.04;33.40
14902;BME280;7542;49.078;9.194;2023-04-30T02:12:47;98916.09;;;29.03;33.15
14902;BME280;7542;49.078;9.194;2023-04-30T02:13:50;98918.50;;;29.05;33.46
14902;BME280;7542;49.078;9.194;2023-04-30T02:14:52;98913.41;;;29.03;33.39
14902;BME280;7542;49.078;9.194;2023-04-30T02:15:54;98912.88;;;29.01;33.59
14902;BME280;7542;49.078;9.194;2023-04-30T02:16:56;98916.91;;;29.04;33.40
14902;BME280;7542;49.078;9.194;2023-04-30T02:17:58;98912.59;;;29.03;33.35
14902;BME280;7542;49.078;9.194;2023-04-30T02:19:01;98910.97;;;29.02;33.72
14902;BME280;7542;49.078;9.194;2023-04-30T02:20:03;98914.78;;;29.01;33.36
14902;BME280;7542;49.078;9.194;2023-04-30T02:21:05;98912.06;;;29.01;33.54
14902;BME280;7542;49.078;9.194;2023-04-30T02:22:07;98915.56;;;29.01;33.19
14902;BME280;7542;49.078;9.194;2023-04-30T02:23:09;98920.47;;;28.99;33.28
14902;BME280;7542;49.078;9.194;2023-04-30T02:24:11;98916.66;;;29.00;33.29
14902;BME280;7542;49.078;9.194;2023-04-30T02:25:13;98917.75;;;28.99;33.24
14902;BME280;7542;49.078;9.194;2023-04-30T02:26:15;98921.56;;;28.98;33.40
14902;BME280;7542;49.078;9.194;2023-04-30T02:27:17;98913.69;;;28.97;33.60
14902;BME280;7542;49.078;9.194;2023-04-30T02:28:19;98916.16;;;28.98;33.30
14902;BME280;7542;49.078;9.194;2023-04-30T02:29:21;98919.66;;;28.99;33.11
14902;BME280;7542;49.078;9.194;2023-04-30T02:30:23;98913.69;;;28.97;33.52
14902;BME280;7542;49.078;9.194;2023-04-30T02:31:24;98918.31;;;28.96;33.52
14902;BME280;7542;49.078;9.194;2023-04-30T02:32:26;98916.41;;;28.97;33.39
14902;BME280;7542;49.078;9.194;2023-04-30T02:33:28;98911.00;;;28.97;33.41
14902;BME280;7542;49.078;9.194;2023-04-30T02:34:30;98917.50;;;28.96;33.18
14902;BME280;7542;49.078;9.194;2023-04-30T02:35:32;98909.69;;;28.94;33.32
14902;BME280;7542;49.078;9.194;2023-04-30T02:36:34;98917.78;;;28.94;33.53
14902;BME280;7542;49.078;9.194;2023-04-30T02:37:37;98913.19;;;28.95;33.23
14902;BME280;7542;49.078;9.194;2023-04-30T02:38:39;98924.28;;;28.93;33.35
14902;BME280;7542;49.078;9.194;2023-04-30T02:39:41;98922.66;;;28.92;33.17
14902;BME280;7542;49.078;9.194;2023-04-30T02:40:43;98920.75;;;28.93;33.48
14902;BME280;7542;49.078;9.194;2023-04-30T02:41:45;98924.28;;;28.93;33.30
14902;BME280;7542;49.078;9.194;2023-04-30T02:42:46;98916.47;;;28.92;33.15
14902;BME280;7542;49.078;9.194;2023-04-30T02:43:48;98920.25;;;28.91;33.53
14902;BME280;7542;49.078;9.194;2023-04-30T02:44:50;98919.16;;;28.92;33.18
14902;BME280;7542;49.078;9.194;2023-04-30T02:45:52;98919.44;;;28.90;33.31
14902;BME280;7542;49.078;9.194;2023-04-30T02:46:54;98918.63;;;28.90;33.53
14902;BME280;7542;49.078;9.194;2023-04-30T02:47:56;98915.94;;;28.90;33.16
14902;BME280;7542;49.078;9.194;2023-04-30T02:48:58;98920.53;;;28.89;33.29
14902;BME280;7542;49.078;9.194;2023-04-30T02:50:00;98917.84;;;28.89;33.32
14902;BME280;7542;49.078;9.194;2023-04-30T02:51:02;98918.63;;;28.90;33.21
14902;BME280;7542;49.078;9.194;2023-04-30T02:52:05;98914.56;;;28.87;33.46
14902;BME280;7542;49.078;9.194;2023-04-30T02:53:10;98914.56;;;28.87;33.24
14902;BME280;7542;49.078;9.194;2023-04-30T02:54:11;98915.38;;;28.87;33.53
14902;BME280;7542;49.078;9.194;2023-04-30T02:55:13;98914.56;;;28.87;33.23
14902;BME280;7542;49.078;9.194;2023-04-30T02:56:15;98912.94;;;28.86;33.13
14902;BME280;7542;49.078;9.194;2023-04-30T02:57:17;98907.53;;;28.86;33.18
14902;BME280;7542;49.078;9.194;2023-04-30T02:58:19;98916.72;;;28.85;33.56
14902;BME280;7542;49.078;9.194;2023-04-30T02:59:21;98913.75;;;28.86;33.20
14902;BME280;7542;49.078;9.194;2023-04-30T03:00:23;98918.91;;;28.83;33.17
14902;BME280;7542;49.078;9.194;2023-04-30T03:01:25;98915.94;;;28.84;33.23
14902;BME280;7542;49.078;9.194;2023-04-30T03:02:27;98914.03;;;28.85;33.39
14902;BME280;7542;49.078;9.194;2023-04-30T03:03:29;98910.81;;;28.83;33.50
14902;BME280;7542;49.078;9.194;2023-04-30T03:04:31;98906.50;;;28.82;33.24
14902;BME280;7542;49.078;9.194;2023-04-30T03:05:32;98910.28;;;28.81;33.19
14902;BME280;7542;49.078;9.194;2023-04-30T03:06:34;98911.09;;;28.81;33.22
14902;BME280;7542;49.078;9.194;2023-04-30T03:07:36;98908.41;;;28.81;33.25
14902;BME280;7542;49.078;9.194;2023-04-30T03:08:38;98908.69;;;28.80;33.46
14902;BME280;7542;49.078;9.194;2023-04-30T03:09:40;98915.69;;;28.81;33.23
14902;BME280;7542;49.078;9.194;2023-04-30T03:10:42;98918.09;;;28.82;33.25
14902;BME280;7542;49.078;9.194;2023-04-30T03:11:44;98915.97;;;28.79;33.18
14902;BME280;7542;49.078;9.194;2023-04-30T03:12:46;98911.66;;;28.78;33.26
14902;BME280;7542;49.078;9.194;2023-04-30T03:13:48;98912.47;;;28.79;33.49
14902;BME280;7542;49.078;9.194;2023-04-30T03:14:53;98913.56;;;28.78;33.36
14902;BME280;7542;49.078;9.194;2023-04-30T03:16:02;98911.09;;;28.81;33.63
14902;BME280;7542;49.078;9.194;2023-04-30T03:17:07;98912.75;;;28.77;33.23
14902;BME280;7542;49.078;9.194;2023-04-30T03:18:09;98911.13;;;28.76;33.21
14902;BME280;7542;49.078;9.194;2023-04-30T03:19:11;98906.56;;;28.77;33.26
14902;BME280;7542;49.078;9.194;2023-04-30T03:20:13;98910.59;;;28.74;33.16
14902;BME280;7542;49.078;9.194;2023-04-30T03:21:15;98911.69;;;28.73;33.27
14902;BME280;7542;49.078;9.194;2023-04-30T03:22:17;98907.09;;;28.74;33.14
14902;BME280;7542;49.078;9.194;2023-04-30T03:23:27;98902.50;;;28.74;33.23
14902;BME280;7542;49.078;9.194;2023-04-30T03:24:29;98906.28;;;28.73;33.10
14902;BME280;7542;49.078;9.194;2023-04-30T03:25:31;98901.19;;;28.72;33.34
14902;BME280;7542;49.078;9.194;2023-04-30T03:26:33;98909.28;;;28.72;33.09
14902;BME280;7542;49.078;9.194;2023-04-30T03:27:35;98909.56;;;28.70;33.45
14902;BME280;7542;49.078;9.194;2023-04-30T03:28:36;98907.66;;;28.71;33.74
14902;BME280;7542;49.078;9.194;2023-04-30T03:29:38;98909.84;;;28.69;33.29
14902;BME280;7542;49.078;9.194;2023-04-30T03:30:40;98911.44;;;28.70;33.29
14902;BME280;7542;49.078;9.194;2023-04-30T03:31:42;98903.34;;;28.70;33.23
14902;BME280;7542;49.078;9.194;2023-04-30T03:32:44;98906.06;;;28.70;33.25
14902;BME280;7542;49.078;9.194;2023-04-30T03:33:46;98899.06;;;28.69;33.25
14902;BME280;7542;49.078;9.194;2023-04-30T03:34:49;98901.75;;;28.69;33.10
14902;BME280;7542;49.078;9.194;2023-04-30T03:35:51;98901.75;;;28.69;33.23
14902;BME280;7542;49.078;9.194;2023-04-30T03:36:54;98899.63;;;28.66;33.39
14902;BME280;7542;49.078;9.194;2023-04-30T03:37:55;98899.63;;;28.66;33.27
14902;BME280;7542;49.078;9.194;2023-04-30T03:38:57;98906.63;;;28.67;33.21
14902;BME280;7542;49.078;9.194;2023-04-30T03:39:59;98901.47;;;28.65;33.26
14902;BME280;7542;49.078;9.194;2023-04-30T03:41:01;98903.38;;;28.65;33.21
14902;BME280;7542;49.078;9.194;2023-04-30T03:42:04;98899.88;;;28.64;33.24
14902;BME280;7542;49.078;9.194;2023-04-30T03:43:06;98906.06;;;28.65;33.34
14902;BME280;7542;49.078;9.194;2023-04-30T03:44:08;98909.06;;;28.63;33.18
14902;BME280;7542;49.078;9.194;2023-04-30T03:45:16;98903.66;;;28.63;33.36
14902;BME280;7542;49.078;9.194;2023-04-30T03:46:18;98904.47;;;28.64;33.38
14902;BME280;7542;49.078;9.194;2023-04-30T03:47:20;98902.06;;;28.62;33.15
14902;BME280;7542;49.078;9.194;2023-04-30T03:48:22;98901.25;;;28.62;33.13
14902;BME280;7542;49.078;9.194;2023-04-30T03:49:24;98903.94;;;28.62;33.21
14902;BME280;7542;49.078;9.194;2023-04-30T03:50:26;98897.75;;;28.61;33.25
14902;BME280;7542;49.078;9.194;2023-04-30T03:51:27;98894.25;;;28.61;33.16
14902;BME280;7542;49.078;9.194;2023-04-30T03:52:29;98893.44;;;28.60;33.36
14902;BME280;7542;49.078;9.194;2023-04-30T03:53:32;98893.72;;;28.58;33.22
14902;BME280;7542;49.078;9.194;2023-04-30T03:54:33;98889.13;;;28.59;33.18
14902;BME280;7542;49.078;9.194;2023-04-30T03:55:35;98888.31;;;28.58;33.20
14902;BME280;7542;49.078;9.194;2023-04-30T03:56:37;98892.09;;;28.57;33.33
14902;BME280;7542;49.078;9.194;2023-04-30T03:57:39;98899.13;;;28.58;33.47
14902;BME280;7542;49.078;9.194;2023-04-30T03:58:41;98887.00;;;28.56;33.21
14902;BME280;7542;49.078;9.194;2023-04-30T03:59:43;98888.88;;;28.55;33.27
14902;BME280;7542;49.078;9.194;2023-04-30T04:00:46;98892.66;;;28.54;33.46
14902;BME280;7542;49.078;9.194;2023-04-30T04:01:48;98893.47;;;28.55;33.23
14902;BME280;7542;49.078;9.194;2023-04-30T04:02:51;98895.34;;;28.54;33.22
14902;BME280;7542;49.078;9.194;2023-04-30T04:03:53;98891.84;;;28.54;33.26
14902;BME280;7542;49.078;9.194;2023-04-30T04:04:55;98889.94;;;28.54;33.44
14902;BME280;7542;49.078;9.194;2023-04-30T04:05:57;98892.13;;;28.52;33.15
14902;BME280;7542;49.078;9.194;2023-04-30T04:06:59;98897.53;;;28.52;33.25
14902;BME280;7542;49.078;9.194;2023-04-30T04:08:02;98890.50;;;28.51;32.99
14902;BME280;7542;49.078;9.194;2023-04-30T04:09:03;98897.00;;;28.50;33.24
14902;BME280;7542;49.078;9.194;2023-04-30T04:10:06;98892.41;;;28.51;33.22
14902;BME280;7542;49.078;9.194;2023-04-30T04:11:09;98890.50;;;28.51;33.33
14902;BME280;7542;49.078;9.194;2023-04-30T04:12:12;98891.59;;;28.50;33.34
14902;BME280;7542;49.078;9.194;2023-04-30T04:13:14;98897.56;;;28.47;33.04
14902;BME280;7542;49.078;9.194;2023-04-30T04:14:16;98904.28;;;28.50;33.28
14902;BME280;7542;49.078;9.194;2023-04-30T04:15:18;98905.66;;;28.47;33.14
14902;BME280;7542;49.078;9.194;2023-04-30T04:16:20;98904.06;;;28.46;33.33
14902;BME280;7542;49.078;9.194;2023-04-30T04:17:23;98902.16;;;28.47;33.24
14902;BME280;7542;49.078;9.194;2023-04-30T04:18:24;98899.47;;;28.47;33.36
14902;BME280;7542;49.078;9.194;2023-04-30T04:19:27;98905.13;;;28.45;32.89
14902;BME280;7542;49.078;9.194;2023-04-30T04:20:29;98905.66;;;28.47;33.17
14902;BME280;7542;49.078;9.194;2023-04-30T04:21:31;98909.44;;;28.46;33.29
14902;BME280;7542;49.078;9.194;2023-04-30T04:22:34;98907.03;;;28.45;33.18
14902;BME280;7542;49.078;9.194;2023-04-30T04:23:35;98912.41;;;28.45;33.17
14902;BME280;7542;49.078;9.194;2023-04-30T04:24:37;98908.91;;;28.44;33.42
14902;BME280;7542;49.078;9.194;2023-04-30T04:25:39;98917.25;;;28.43;33.26
14902;BME280;7542;49.078;9.194;2023-04-30T04:26:42;98917.53;;;28.41;33.19
14902;BME280;7542;49.078;9.194;2023-04-30T04:27:45;98916.47;;;28.42;33.22
14902;BME280;7542;49.078;9.194;2023-04-30T04:28:47;98914.03;;;28.41;33.47
14902;BME280;7542;49.078;9.194;2023-04-30T04:29:49;98922.94;;;28.41;33.20
14902;BME280;7542;49.078;9.194;2023-04-30T04:30:51;98930.22;;;28.41;33.18
14902;BME280;7542;49.078;9.194;2023-04-30T04:31:54;98920.81;;;28.38;33.42
14902;BME280;7542;49.078;9.194;2023-04-30T04:32:56;98922.94;;;28.41;33.23
14902;BME280;7542;49.078;9.194;2023-04-30T04:34:00;98923.50;;;28.38;33.14
14902;BME280;7542;49.078;9.194;2023-04-30T04:35:03;98923.22;;;28.40;33.47
14902;BME280;7542;49.078;9.194;2023-04-30T04:36:05;98921.63;;;28.39;33.08
14902;BME280;7542;49.078;9.194;2023-04-30T04:37:07;98921.63;;;28.39;33.20
14902;BME280;7542;49.078;9.194;2023-04-30T04:38:09;98928.38;;;28.36;33.32
14902;BME280;7542;49.078;9.194;2023-04-30T04:39:11;98921.91;;;28.37;33.19
14902;BME280;7542;49.078;9.194;2023-04-30T04:40:14;98928.38;;;28.36;33.34
14902;BME280;7542;49.078;9.194;2023-04-30T04:41:15;98931.06;;;28.36;33.25
14902;BME280;7542;49.078;9.194;2023-04-30T04:42:17;98930.28;;;28.36;33.18
14902;BME280;7542;49.078;9.194;2023-04-30T04:43:20;98929.75;;;28.34;33.14
14902;BME280;7542;49.078;9.194;2023-04-30T04:44:22;98926.25;;;28.33;33.10
14902;BME280;7542;49.078;9.194;2023-04-30T04:45:24;98930.81;;;28.33;33.08
14902;BME280;7542;49.078;9.194;2023-04-30T04:46:27;98930.56;;;28.34;33.23
14902;BME280;7542;49.078;9.194;2023-04-30T04:47:29;98934.88;;;28.30;33.15
14902;BME280;7542;49.078;9.194;2023-04-30T04:48:31;98929.19;;;28.32;33.20
14902;BME280;7542;49.078;9.194;2023-04-30T04:49:32;98928.09;;;28.33;33.22
14902;BME280;7542;49.078;9.194;2023-04-30T04:50:34;98931.88;;;28.32;33.14
14902;BME280;7542;49.078;9.194;2023-04-30T04:51:36;98930.28;;;28.30;33.21
14902;BME280;7542;49.078;9.194;2023-04-30T04:52:40;98930.28;;;28.30;33.16
14902;BME280;7542;49.078;9.194;2023-04-30T04:53:42;98926.78;;;28.30;33.19
14902;BME280;7542;49.078;9.194;2023-04-30T04:54:43;98930.28;;;28.30;33.26
14902;BME280;7542;49.078;9.194;2023-04-30T04:55:45;98929.47;;;28.30;33.18
14902;BME280;7542;49.078;9.194;2023-04-30T04:56:47;98932.16;;;28.30;33.24
14902;BME280;7542;49.078;9.194;2023-04-30T04:57:49;98924.59;;;28.27;33.21
14902;BME280;7542;49.078;9.194;2023-04-30T04:58:51;98931.66;;;28.28;33.17
14902;BME280;7542;49.078;9.194;2023-04-30T04:59:53;98934.34;;;28.28;33.33
14902;BME280;7542;49.078;9.194;2023-04-30T05:00:56;98932.69;;;28.27;32.96
14902;BME280;7542;49.078;9.194;2023-04-30T05:01:58;98940.00;;;28.26;33.28
14902;BME280;7542;49.078;9.194;2023-04-30T05:03:00;98936.47;;;28.26;33.10
14902;BME280;7542;49.078;9.194;2023-04-30T05:04:02;98938.09;;;28.27;33.18
14902;BME280;7542;49.078;9.194;2023-04-30T05:05:04;98938.38;;;28.25;33.33
14902;BME280;7542;49.078;9.194;2023-04-30T05:06:06;98935.69;;;28.25;33.28
14902;BME280;7542;49.078;9.194;2023-04-30T05:07:09;98937.56;;;28.25;33.28
14902;BME280;7542;49.078;9.194;2023-04-30T05:08:12;98935.97;;;28.24;33.14
14902;BME280;7542;49.078;9.194;2023-04-30T05:09:14;98934.88;;;28.25;33.20
14902;BME280;7542;49.078;9.194;2023-04-30T05:10:16;98930.56;;;28.24;33.33
14902;BME280;7542;49.078;9.194;2023-04-30T05:11:18;98925.44;;;28.22;33.13
14902;BME280;7542;49.078;9.194;2023-04-30T05:12:20;98928.16;;;28.22;33.25
14902;BME280;7542;49.078;9.194;2023-04-30T05:13:22;98933.53;;;28.22;33.23
14902;BME280;7542;49.078;9.194;2023-04-30T05:14:24;98926.25;;;28.23;33.12
14902;BME280;7542;49.078;9.194;2023-04-30T05:15:26;98926.25;;;28.23;33.15
14902;BME280;7542;49.078;9.194;2023-04-30T05:16:28;98935.41;;;28.22;33.08
14902;BME280;7542;49.078;9.194;2023-04-30T05:17:30;98931.66;;;28.23;33.20
14902;BME280;7542;49.078;9.194;2023-04-30T05:18:31;98929.22;;;28.21;33.18
14902;BME280;7542;49.078;9.194;2023-04-30T05:19:34;98926.50;;;28.21;33.13
14902;BME280;7542;49.078;9.194;2023-04-30T05:20:35;98933.53;;;28.22;33.06
14902;BME280;7542;49.078;9.194;2023-04-30T05:21:37;98929.22;;;28.21;33.15
14902;BME280;7542;49.078;9.194;2023-04-30T05:22:40;98928.41;;;28.21;33.03
14902;BME280;7542;49.078;9.194;2023-04-30T05:23:43;98924.09;;;28.20;33.15
14902;BME280;7542;49.078;9.194;2023-04-30T05:24:45;98933.00;;;28.20;33.04
14902;BME280;7542;49.078;9.194;2023-04-30T05:25:51;98925.69;;;28.21;33.18
14902;BME280;7542;49.078;9.194;2023-04-30T05:26:53;98936.78;;;28.19;33.13
14902;BME280;7542;49.078;9.194;2023-04-30T05:27:55;98931.38;;;28.19;33.21
14902;BME280;7542;49.078;9.194;2023-04-30T05:28:57;98938.66;;;28.19;33.12
14902;BME280;7542;49.078;9.194;2023-04-30T05:29:59;98939.47;;;28.19;33.27
14902;BME280;7542;49.078;9.194;2023-04-30T05:31:01;98938.66;;;28.19;33.26
14902;BME280;7542;49.078;9.194;2023-04-30T05:32:03;98933.53;;;28.17;33.16
14902;BME280;7542;49.078;9.194;2023-04-30T05:33:05;98934.34;;;28.18;33.11
14902;BME280;7542;49.078;9.194;2023-04-30T05:34:07;98930.84;;;28.17;33.16
14902;BME280;7542;49.078;9.194;2023-04-30T05:35:09;98931.66;;;28.18;33.20
14902;BME280;7542;49.078;9.194;2023-04-30T05:36:12;98930.03;;;28.17;33.14
14902;BME280;7542;49.078;9.194;2023-04-30T05:37:14;98936.78;;;28.19;33.09
14902;BME280;7542;49.078;9.194;2023-04-30T05:38:18;98934.34;;;28.18;33.10
14902;BME280;7542;49.078;9.194;2023-04-30T05:39:20;98942.44;;;28.18;33.23
14902;BME280;7542;49.078;9.194;2023-04-30T05:40:21;98933.81;;;28.16;33.14
14902;BME280;7542;49.078;9.194;2023-04-30T05:41:23;98933.53;;;28.17;33.14
14902;BME280;7542;49.078;9.194;2023-04-30T05:42:25;98934.91;;;28.15;33.23
14902;BME280;7542;49.078;9.194;2023-04-30T05:43:27;98934.63;;;28.16;33.00
14902;BME280;7542;49.078;9.194;2023-04-30T05:44:29;98933.53;;;28.17;33.27
14902;BME280;7542;49.078;9.194;2023-04-30T05:45:32;98930.03;;;28.17;33.26
14902;BME280;7542;49.078;9.194;2023-04-30T05:46:34;98938.13;;;28.17;33.29
14902;BME280;7542;49.078;9.194;2023-04-30T05:47:36;98936.53;;;28.16;33.17
14902;BME280;7542;49.078;9.194;2023-04-30T05:48:38;98935.44;;;28.17;33.26
14902;BME280;7542;49.078;9.194;2023-04-30T05:49:40;98933.81;;;28.16;33.26
14902;BME280;7542;49.078;9.194;2023-04-30T05:50:42;98937.59;;;28.15;33.26
14902;BME280;7542;49.078;9.194;2023-04-30T05:51:44;98939.75;;;28.18;33.30
14902;BME280;7542;49.078;9.194;2023-04-30T05:52:46;98939.75;;;28.18;33.34
14902;BME280;7542;49.078;9.194;2023-04-30T05:53:48;98943.25;;;28.18;33.24
14902;BME280;7542;49.078;9.194;2023-04-30T05:54:50;98938.94;;;28.17;33.38
14902;BME280;7542;49.078;9.194;2023-04-30T05:55:52;98947.03;;;28.17;33.22
14902;BME280;7542;49.078;9.194;2023-04-30T05:56:53;98949.44;;;28.19;33.43